Terminal Aerodrome Forecast
Issued by NWS

Home | Current Version | Previous Version | Text Only | Print | Product List | Glossary On
Versions: 1 2 3 4 5 6 7 8 9 10 11 12 13 14 15 16
000
FTUS43 KMPX 230800 AAA
TAFRNH
TAF AMD
KRNH 230809Z 2308/2406 17003KT P6SM SKC
      TEMPO 2309/2313 1SM BR VV005
     FM231400 18006KT P6SM SKC
     FM231800 18009G16KT P6SM SCT250
     FM232300 15005KT P6SM OVC250=

USA.gov is the U.S. government's official web portal to all federal, state and local government web resources and services.